sensor_id;sensor_type;location;lat;lon;timestamp;temperature;humidity
33699;DHT22;20032;52.436;13.312;2022-11-20T00:01:43;1.00;99.90
33699;DHT22;20032;52.436;13.312;2022-11-20T00:04:10;1.00;99.90
33699;DHT22;20032;52.436;13.312;2022-11-20T00:06:37;1.00;99.90
33699;DHT22;20032;52.436;13.312;2022-11-20T00:09:02;1.00;99.90
33699;DHT22;20032;52.436;13.312;2022-11-20T00:11:29;1.00;99.90
33699;DHT22;20032;52.436;13.312;2022-11-20T00:13:57;1.00;99.90
33699;DHT22;20032;52.436;13.312;2022-11-20T00:16:24;1.00;99.90
33699;DHT22;20032;52.436;13.312;2022-11-20T00:18:50;1.00;99.90
33699;DHT22;20032;52.436;13.312;2022-11-20T00:21:18;0.90;99.90
33699;DHT22;20032;52.436;13.312;2022-11-20T00:23:44;0.90;99.90
33699;DHT22;20032;52.436;13.312;2022-11-20T00:26:12;0.90;99.90
33699;DHT22;20032;52.436;13.312;2022-11-20T00:28:38;0.80;99.90
33699;DHT22;20032;52.436;13.312;2022-11-20T00:31:06;0.80;99.90
33699;DHT22;20032;52.436;13.312;2022-11-20T00:33:32;0.80;99.90
33699;DHT22;20032;52.436;13.312;2022-11-20T00:36:03;0.80;99.90
33699;DHT22;20032;52.436;13.312;2022-11-20T00:38:30;0.80;99.90
33699;DHT22;20032;52.436;13.312;2022-11-20T00:40:57;0.80;99.90
33699;DHT22;20032;52.436;13.312;2022-11-20T00:43:23;0.80;99.90
33699;DHT22;20032;52.436;13.312;2022-11-20T00:45:49;0.70;99.90
33699;DHT22;20032;52.436;13.312;2022-11-20T00:48:15;0.80;99.90
33699;DHT22;20032;52.436;13.312;2022-11-20T00:50:41;0.80;99.90
33699;DHT22;20032;52.436;13.312;2022-11-20T00:53:06;0.80;99.90
33699;DHT22;20032;52.436;13.312;2022-11-20T00:55:32;0.80;99.90
33699;DHT22;20032;52.436;13.312;2022-11-20T00:57:57;0.80;99.90
33699;DHT22;20032;52.436;13.312;2022-11-20T01:00:23;0.80;99.90
33699;DHT22;20032;52.436;13.312;2022-11-20T01:02:48;0.90;99.90
33699;DHT22;20032;52.436;13.312;2022-11-20T01:05:14;0.90;99.90
33699;DHT22;20032;52.436;13.312;2022-11-20T01:07:39;0.80;99.90
33699;DHT22;20032;52.436;13.312;2022-11-20T01:10:05;0.80;99.90
33699;DHT22;20032;52.436;13.312;2022-11-20T01:12:31;0.80;99.90
33699;DHT22;20032;52.436;13.312;2022-11-20T01:14:56;0.80;99.90
33699;DHT22;20032;52.436;13.312;2022-11-20T01:17:22;0.80;99.90
33699;DHT22;20032;52.436;13.312;2022-11-20T01:19:49;0.80;99.90
33699;DHT22;20032;52.436;13.312;2022-11-20T01:22:15;0.70;99.90
33699;DHT22;20032;52.436;13.312;2022-11-20T01:24:41;0.80;99.90
33699;DHT22;20032;52.436;13.312;2022-11-20T01:27:06;0.70;99.90
33699;DHT22;20032;52.436;13.312;2022-11-20T01:29:32;0.60;99.90
33699;DHT22;20032;52.436;13.312;2022-11-20T01:31:57;0.60;99.90
33699;DHT22;20032;52.436;13.312;2022-11-20T01:34:23;0.60;99.90
33699;DHT22;20032;52.436;13.312;2022-11-20T01:36:49;0.60;99.90
33699;DHT22;20032;52.436;13.312;2022-11-20T01:39:17;0.60;99.90
33699;DHT22;20032;52.436;13.312;2022-11-20T01:41:44;0.50;99.90
33699;DHT22;20032;52.436;13.312;2022-11-20T01:44:54;0.60;99.90
33699;DHT22;20032;52.436;13.312;2022-11-20T01:49:54;0.60;99.90
33699;DHT22;20032;52.436;13.312;2022-11-20T01:52:27;0.70;99.90
33699;DHT22;20032;52.436;13.312;2022-11-20T01:54:58;0.80;99.90
33699;DHT22;20032;52.436;13.312;2022-11-20T01:57:26;0.80;99.90
33699;DHT22;20032;52.436;13.312;2022-11-20T01:59:58;0.70;99.90
33699;DHT22;20032;52.436;13.312;2022-11-20T02:02:25;0.70;99.90
33699;DHT22;20032;52.436;13.312;2022-11-20T02:04:51;0.60;99.90
33699;DHT22;20032;52.436;13.312;2022-11-20T02:07:20;0.50;99.90
33699;DHT22;20032;52.436;13.312;2022-11-20T02:09:46;0.50;99.90
33699;DHT22;20032;52.436;13.312;2022-11-20T02:12:11;0.40;99.90
33699;DHT22;20032;52.436;13.312;2022-11-20T02:14:57;0.40;99.90
33699;DHT22;20032;52.436;13.312;2022-11-20T02:17:24;0.30;99.90
33699;DHT22;20032;52.436;13.312;2022-11-20T02:19:49;0.30;99.90
33699;DHT22;20032;52.436;13.312;2022-11-20T02:22:23;0.40;99.90
33699;DHT22;20032;52.436;13.312;2022-11-20T02:24:51;0.50;99.90
33699;DHT22;20032;52.436;13.312;2022-11-20T02:27:17;0.60;99.90
33699;DHT22;20032;52.436;13.312;2022-11-20T02:29:53;0.60;99.90
33699;DHT22;20032;52.436;13.312;2022-11-20T02:32:25;0.60;99.90
33699;DHT22;20032;52.436;13.312;2022-11-20T02:34:51;0.60;99.90
33699;DHT22;20032;52.436;13.312;2022-11-20T02:37:16;0.60;99.90
33699;DHT22;20032;52.436;13.312;2022-11-20T02:39:45;0.50;99.90
33699;DHT22;20032;52.436;13.312;2022-11-20T02:42:11;0.40;99.90
33699;DHT22;20032;52.436;13.312;2022-11-20T02:44:36;0.40;99.90
33699;DHT22;20032;52.436;13.312;2022-11-20T02:47:02;0.40;99.90
33699;DHT22;20032;52.436;13.312;2022-11-20T02:49:27;0.40;99.90
33699;DHT22;20032;52.436;13.312;2022-11-20T02:51:53;0.30;99.90
33699;DHT22;20032;52.436;13.312;2022-11-20T02:54:18;0.30;99.90
33699;DHT22;20032;52.436;13.312;2022-11-20T02:56:44;0.30;99.90
33699;DHT22;20032;52.436;13.312;2022-11-20T02:59:09;0.30;99.90
33699;DHT22;20032;52.436;13.312;2022-11-20T03:01:35;0.30;99.90
33699;DHT22;20032;52.436;13.312;2022-11-20T03:04:01;0.20;99.90
33699;DHT22;20032;52.436;13.312;2022-11-20T03:06:27;0.30;99.90
33699;DHT22;20032;52.436;13.312;2022-11-20T03:08:52;0.30;99.90
33699;DHT22;20032;52.436;13.312;2022-11-20T03:11:18;0.30;99.90
33699;DHT22;20032;52.436;13.312;2022-11-20T03:13:43;0.30;99.90
33699;DHT22;20032;52.436;13.312;2022-11-20T03:16:12;0.20;99.90
33699;DHT22;20032;52.436;13.312;2022-11-20T03:18:39;0.20;99.90
33699;DHT22;20032;52.436;13.312;2022-11-20T03:21:04;0.10;99.90
33699;DHT22;20032;52.436;13.312;2022-11-20T03:23:31;0.20;99.90
33699;DHT22;20032;52.436;13.312;2022-11-20T03:26:07;0.30;99.90
33699;DHT22;20032;52.436;13.312;2022-11-20T03:28:33;0.30;99.90
33699;DHT22;20032;52.436;13.312;2022-11-20T03:31:05;0.20;99.90
33699;DHT22;20032;52.436;13.312;2022-11-20T03:33:30;0.10;99.90
33699;DHT22;20032;52.436;13.312;2022-11-20T03:36:01;0.00;99.90
33699;DHT22;20032;52.436;13.312;2022-11-20T03:38:29;0.00;99.90
33699;DHT22;20032;52.436;13.312;2022-11-20T03:40:59;0.00;99.90
33699;DHT22;20032;52.436;13.312;2022-11-20T03:43:25;0.10;99.90
33699;DHT22;20032;52.436;13.312;2022-11-20T03:45:50;0.10;99.90
33699;DHT22;20032;52.436;13.312;2022-11-20T03:48:16;0.10;99.90
33699;DHT22;20032;52.436;13.312;2022-11-20T03:50:41;0.10;99.90
33699;DHT22;20032;52.436;13.312;2022-11-20T03:53:06;0.20;99.90
33699;DHT22;20032;52.436;13.312;2022-11-20T03:55:32;0.40;99.90
33699;DHT22;20032;52.436;13.312;2022-11-20T03:57:57;0.40;99.90
33699;DHT22;20032;52.436;13.312;2022-11-20T04:00:23;0.40;99.90
33699;DHT22;20032;52.436;13.312;2022-11-20T04:02:48;0.30;99.90
33699;DHT22;20032;52.436;13.312;2022-11-20T04:05:14;0.30;99.90
33699;DHT22;20032;52.436;13.312;2022-11-20T04:07:39;0.20;99.90
33699;DHT22;20032;52.436;13.312;2022-11-20T04:10:05;0.30;99.90
33699;DHT22;20032;52.436;13.312;2022-11-20T04:12:32;0.30;99.90
33699;DHT22;20032;52.436;13.312;2022-11-20T04:14:58;0.30;99.90
33699;DHT22;20032;52.436;13.312;2022-11-20T04:17:24;0.30;99.90
33699;DHT22;20032;52.436;13.312;2022-11-20T04:19:49;0.30;99.90
33699;DHT22;20032;52.436;13.312;2022-11-20T04:22:15;0.30;99.90
33699;DHT22;20032;52.436;13.312;2022-11-20T04:24:40;0.30;99.90
33699;DHT22;20032;52.436;13.312;2022-11-20T04:27:06;0.30;99.90
33699;DHT22;20032;52.436;13.312;2022-11-20T04:29:31;0.30;99.90
33699;DHT22;20032;52.436;13.312;2022-11-20T04:31:57;0.30;99.90
33699;DHT22;20032;52.436;13.312;2022-11-20T04:34:22;0.40;99.90
33699;DHT22;20032;52.436;13.312;2022-11-20T04:36:48;0.50;99.90
33699;DHT22;20032;52.436;13.312;2022-11-20T04:39:14;0.50;99.90
33699;DHT22;20032;52.436;13.312;2022-11-20T04:41:40;0.50;99.90
33699;DHT22;20032;52.436;13.312;2022-11-20T04:44:06;0.60;99.90
33699;DHT22;20032;52.436;13.312;2022-11-20T04:46:37;0.50;99.90
33699;DHT22;20032;52.436;13.312;2022-11-20T04:49:03;0.30;99.90
33699;DHT22;20032;52.436;13.312;2022-11-20T04:51:28;0.40;99.90
33699;DHT22;20032;52.436;13.312;2022-11-20T04:53:54;0.40;99.90
33699;DHT22;20032;52.436;13.312;2022-11-20T04:56:20;0.30;99.90
33699;DHT22;20032;52.436;13.312;2022-11-20T04:58:45;0.40;99.90
33699;DHT22;20032;52.436;13.312;2022-11-20T05:01:13;0.40;99.90
33699;DHT22;20032;52.436;13.312;2022-11-20T05:03:39;0.40;99.90
33699;DHT22;20032;52.436;13.312;2022-11-20T05:06:06;0.40;99.90
33699;DHT22;20032;52.436;13.312;2022-11-20T05:08:33;0.40;99.90
33699;DHT22;20032;52.436;13.312;2022-11-20T05:11:01;0.40;99.90
33699;DHT22;20032;52.436;13.312;2022-11-20T05:13:27;0.50;99.90
33699;DHT22;20032;52.436;13.312;2022-11-20T05:15:52;0.50;99.90
33699;DHT22;20032;52.436;13.312;2022-11-20T05:18:18;0.60;99.90
33699;DHT22;20032;52.436;13.312;2022-11-20T05:20:43;0.50;99.90
33699;DHT22;20032;52.436;13.312;2022-11-20T05:23:09;0.50;99.90
33699;DHT22;20032;52.436;13.312;2022-11-20T05:25:34;0.50;99.90
33699;DHT22;20032;52.436;13.312;2022-11-20T05:27:59;0.60;99.90
33699;DHT22;20032;52.436;13.312;2022-11-20T05:30:25;0.60;99.90
33699;DHT22;20032;52.436;13.312;2022-11-20T05:32:50;0.50;99.90
33699;DHT22;20032;52.436;13.312;2022-11-20T05:35:16;0.50;99.90
33699;DHT22;20032;52.436;13.312;2022-11-20T05:37:41;0.50;99.90
33699;DHT22;20032;52.436;13.312;2022-11-20T05:40:07;0.50;99.90
33699;DHT22;20032;52.436;13.312;2022-11-20T05:42:33;0.40;99.90
33699;DHT22;20032;52.436;13.312;2022-11-20T05:44:59;0.40;99.90
33699;DHT22;20032;52.436;13.312;2022-11-20T05:47:27;0.40;99.90
33699;DHT22;20032;52.436;13.312;2022-11-20T05:49:52;0.50;99.90
33699;DHT22;20032;52.436;13.312;2022-11-20T05:52:19;0.50;99.90
33699;DHT22;20032;52.436;13.312;2022-11-20T05:54:45;0.60;99.90
33699;DHT22;20032;52.436;13.312;2022-11-20T05:57:10;0.60;99.90
33699;DHT22;20032;52.436;13.312;2022-11-20T05:59:35;0.70;99.90
33699;DHT22;20032;52.436;13.312;2022-11-20T06:02:01;0.70;99.90
33699;DHT22;20032;52.436;13.312;2022-11-20T06:04:26;0.70;99.90
33699;DHT22;20032;52.436;13.312;2022-11-20T06:06:52;0.60;99.90
33699;DHT22;20032;52.436;13.312;2022-11-20T06:09:17;0.50;99.90
33699;DHT22;20032;52.436;13.312;2022-11-20T06:11:43;0.50;99.90
33699;DHT22;20032;52.436;13.312;2022-11-20T06:14:08;0.60;99.90
33699;DHT22;20032;52.436;13.312;2022-11-20T06:16:34;0.60;99.90
33699;DHT22;20032;52.436;13.312;2022-11-20T06:18:59;0.50;99.90
33699;DHT22;20032;52.436;13.312;2022-11-20T06:21:24;0.60;99.90
33699;DHT22;20032;52.436;13.312;2022-11-20T06:23:51;0.70;99.90
33699;DHT22;20032;52.436;13.312;2022-11-20T06:26:19;0.70;99.90
33699;DHT22;20032;52.436;13.312;2022-11-20T06:28:45;0.60;99.90
33699;DHT22;20032;52.436;13.312;2022-11-20T06:31:13;0.50;99.90
33699;DHT22;20032;52.436;13.312;2022-11-20T06:33:40;0.40;99.90
33699;DHT22;20032;52.436;13.312;2022-11-20T06:36:05;0.50;99.90
33699;DHT22;20032;52.436;13.312;2022-11-20T06:38:31;0.50;99.90
33699;DHT22;20032;52.436;13.312;2022-11-20T06:40:57;0.60;99.90
33699;DHT22;20032;52.436;13.312;2022-11-20T06:43:23;0.60;99.90
33699;DHT22;20032;52.436;13.312;2022-11-20T06:45:53;0.50;99.90
33699;DHT22;20032;52.436;13.312;2022-11-20T06:48:19;0.50;99.90
33699;DHT22;20032;52.436;13.312;2022-11-20T06:50:44;0.40;99.90
33699;DHT22;20032;52.436;13.312;2022-11-20T06:53:10;0.30;99.90
33699;DHT22;20032;52.436;13.312;2022-11-20T06:55:35;0.20;99.90
33699;DHT22;20032;52.436;13.312;2022-11-20T06:58:01;0.30;99.90
33699;DHT22;20032;52.436;13.312;2022-11-20T07:00:26;0.40;99.90
33699;DHT22;20032;52.436;13.312;2022-11-20T07:02:51;0.30;99.90
33699;DHT22;20032;52.436;13.312;2022-11-20T07:05:17;0.30;99.90
33699;DHT22;20032;52.436;13.312;2022-11-20T07:07:43;0.30;99.90
33699;DHT22;20032;52.436;13.312;2022-11-20T07:10:09;0.30;99.90
33699;DHT22;20032;52.436;13.312;2022-11-20T07:12:35;0.20;99.90
33699;DHT22;20032;52.436;13.312;2022-11-20T07:15:00;0.10;99.90
33699;DHT22;20032;52.436;13.312;2022-11-20T07:17:26;0.20;99.90
33699;DHT22;20032;52.436;13.312;2022-11-20T07:19:51;0.20;99.90
33699;DHT22;20032;52.436;13.312;2022-11-20T07:22:17;0.20;99.90
33699;DHT22;20032;52.436;13.312;2022-11-20T07:24:42;0.20;99.90
33699;DHT22;20032;52.436;13.312;2022-11-20T07:27:08;0.10;99.90
33699;DHT22;20032;52.436;13.312;2022-11-20T07:29:33;0.10;99.90
33699;DHT22;20032;52.436;13.312;2022-11-20T07:31:59;0.20;99.90
33699;DHT22;20032;52.436;13.312;2022-11-20T07:34:24;0.20;99.90
33699;DHT22;20032;52.436;13.312;2022-11-20T07:36:50;0.20;99.90
33699;DHT22;20032;52.436;13.312;2022-11-20T07:39:15;0.20;99.90
33699;DHT22;20032;52.436;13.312;2022-11-20T07:41:41;0.20;99.90
33699;DHT22;20032;52.436;13.312;2022-11-20T07:44:06;0.30;99.90
33699;DHT22;20032;52.436;13.312;2022-11-20T07:46:32;0.30;99.90
33699;DHT22;20032;52.436;13.312;2022-11-20T07:48:57;0.40;99.90
33699;DHT22;20032;52.436;13.312;2022-11-20T07:51:23;0.40;99.90
33699;DHT22;20032;52.436;13.312;2022-11-20T07:53:51;0.40;99.90
33699;DHT22;20032;52.436;13.312;2022-11-20T07:56:17;0.50;99.90
33699;DHT22;20032;52.436;13.312;2022-11-20T07:58:42;0.60;99.90
33699;DHT22;20032;52.436;13.312;2022-11-20T08:01:08;0.50;99.90
33699;DHT22;20032;52.436;13.312;2022-11-20T08:03:34;0.60;99.90
33699;DHT22;20032;52.436;13.312;2022-11-20T08:06:00;0.60;99.90
33699;DHT22;20032;52.436;13.312;2022-11-20T08:08:26;0.60;99.90
33699;DHT22;20032;52.436;13.312;2022-11-20T08:10:52;0.60;99.90
33699;DHT22;20032;52.436;13.312;2022-11-20T08:13:38;0.60;99.90
33699;DHT22;20032;52.436;13.312;2022-11-20T08:16:23;0.70;99.90
33699;DHT22;20032;52.436;13.312;2022-11-20T08:18:49;0.80;99.90
33699;DHT22;20032;52.436;13.312;2022-11-20T08:21:15;0.80;99.90
33699;DHT22;20032;52.436;13.312;2022-11-20T08:23:40;0.80;99.90
33699;DHT22;20032;52.436;13.312;2022-11-20T08:26:05;0.80;99.90
33699;DHT22;20032;52.436;13.312;2022-11-20T08:28:31;0.80;99.90
33699;DHT22;20032;52.436;13.312;2022-11-20T08:31:01;0.80;99.90
33699;DHT22;20032;52.436;13.312;2022-11-20T08:33:27;0.80;99.90
33699;DHT22;20032;52.436;13.312;2022-11-20T08:35:59;0.90;99.90
33699;DHT22;20032;52.436;13.312;2022-11-20T08:38:25;1.00;99.90
33699;DHT22;20032;52.436;13.312;2022-11-20T08:40:51;1.00;99.90
33699;DHT22;20032;52.436;13.312;2022-11-20T08:43:36;1.00;99.90
33699;DHT22;20032;52.436;13.312;2022-11-20T08:46:02;0.80;99.90
33699;DHT22;20032;52.436;13.312;2022-11-20T08:48:27;0.70;99.90
33699;DHT22;20032;52.436;13.312;2022-11-20T08:50:52;0.80;99.90
33699;DHT22;20032;52.436;13.312;2022-11-20T08:53:18;0.70;99.90
33699;DHT22;20032;52.436;13.312;2022-11-20T08:55:43;0.70;99.90
33699;DHT22;20032;52.436;13.312;2022-11-20T08:58:09;0.70;99.90
33699;DHT22;20032;52.436;13.312;2022-11-20T09:00:34;0.70;99.90
33699;DHT22;20032;52.436;13.312;2022-11-20T09:03:00;0.80;99.90
33699;DHT22;20032;52.436;13.312;2022-11-20T09:05:26;0.80;99.90
33699;DHT22;20032;52.436;13.312;2022-11-20T09:07:52;0.80;99.90
33699;DHT22;20032;52.436;13.312;2022-11-20T09:10:20;0.80;99.90
33699;DHT22;20032;52.436;13.312;2022-11-20T09:12:48;0.80;99.90
33699;DHT22;20032;52.436;13.312;2022-11-20T09:15:14;0.80;99.90
33699;DHT22;20032;52.436;13.312;2022-11-20T09:17:39;0.80;99.90
33699;DHT22;20032;52.436;13.312;2022-11-20T09:20:05;0.80;99.90
33699;DHT22;20032;52.436;13.312;2022-11-20T09:22:31;0.80;99.90
33699;DHT22;20032;52.436;13.312;2022-11-20T09:24:56;0.90;99.90
33699;DHT22;20032;52.436;13.312;2022-11-20T09:27:21;0.90;99.90
33699;DHT22;20032;52.436;13.312;2022-11-20T09:29:47;0.80;99.90
33699;DHT22;20032;52.436;13.312;2022-11-20T09:32:12;0.70;99.90
33699;DHT22;20032;52.436;13.312;2022-11-20T09:34:38;0.70;99.90
33699;DHT22;20032;52.436;13.312;2022-11-20T09:37:03;0.70;99.90
33699;DHT22;20032;52.436;13.312;2022-11-20T09:39:29;0.70;99.90
33699;DHT22;20032;52.436;13.312;2022-11-20T09:45:01;0.60;99.90
33699;DHT22;20032;52.436;13.312;2022-11-20T09:47:41;0.60;99.90
33699;DHT22;20032;52.436;13.312;2022-11-20T09:51:33;0.70;99.90
33699;DHT22;20032;52.436;13.312;2022-11-20T09:54:20;0.60;99.90
33699;DHT22;20032;52.436;13.312;2022-11-20T09:56:09;0.60;99.90
33699;DHT22;20032;52.436;13.312;2022-11-20T09:58:42;0.60;99.90
33699;DHT22;20032;52.436;13.312;2022-11-20T10:01:19;0.60;99.90
33699;DHT22;20032;52.436;13.312;2022-11-20T10:03:50;0.70;99.90
33699;DHT22;20032;52.436;13.312;2022-11-20T10:06:18;0.70;99.90
33699;DHT22;20032;52.436;13.312;2022-11-20T10:09:27;0.80;99.90
33699;DHT22;20032;52.436;13.312;2022-11-20T10:12:03;1.00;99.90
33699;DHT22;20032;52.436;13.312;2022-11-20T10:17:41;1.00;99.90
33699;DHT22;20032;52.436;13.312;2022-11-20T10:24:48;0.80;99.90
33699;DHT22;20032;52.436;13.312;2022-11-20T10:26:03;0.80;99.90
33699;DHT22;20032;52.436;13.312;2022-11-20T10:28:42;0.90;99.90
33699;DHT22;20032;52.436;13.312;2022-11-20T10:31:23;1.00;99.90
33699;DHT22;20032;52.436;13.312;2022-11-20T10:33:51;1.00;99.90
33699;DHT22;20032;52.436;13.312;2022-11-20T10:36:22;1.00;99.90
33699;DHT22;20032;52.436;13.312;2022-11-20T10:38:54;0.90;99.90
33699;DHT22;20032;52.436;13.312;2022-11-20T10:41:27;0.90;99.90
33699;DHT22;20032;52.436;13.312;2022-11-20T10:44:16;0.90;99.90
33699;DHT22;20032;52.436;13.312;2022-11-20T10:47:03;1.00;99.90
33699;DHT22;20032;52.436;13.312;2022-11-20T10:49:30;1.10;99.90
33699;DHT22;20032;52.436;13.312;2022-11-20T10:52:09;1.10;99.90
33699;DHT22;20032;52.436;13.312;2022-11-20T10:54:44;1.10;99.90
33699;DHT22;20032;52.436;13.312;2022-11-20T11:00:15;1.10;99.90
33699;DHT22;20032;52.436;13.312;2022-11-20T11:02:48;1.20;99.90
33699;DHT22;20032;52.436;13.312;2022-11-20T11:05:39;1.20;99.90
33699;DHT22;20032;52.436;13.312;2022-11-20T11:08:12;1.30;99.90
33699;DHT22;20032;52.436;13.312;2022-11-20T11:10:59;1.40;99.90
33699;DHT22;20032;52.436;13.312;2022-11-20T11:13:28;1.40;99.90
33699;DHT22;20032;52.436;13.312;2022-11-20T11:15:55;1.40;99.90
33699;DHT22;20032;52.436;13.312;2022-11-20T11:18:29;1.40;99.90
33699;DHT22;20032;52.436;13.312;2022-11-20T11:20:57;1.50;99.90
33699;DHT22;20032;52.436;13.312;2022-11-20T11:23:40;1.60;99.90
33699;DHT22;20032;52.436;13.312;2022-11-20T11:26:18;1.90;99.90
33699;DHT22;20032;52.436;13.312;2022-11-20T11:28:53;2.20;99.90
33699;DHT22;20032;52.436;13.312;2022-11-20T11:31:28;2.20;99.90
33699;DHT22;20032;52.436;13.312;2022-11-20T11:34:15;2.10;99.90
33699;DHT22;20032;52.436;13.312;2022-11-20T11:36:41;1.90;99.90
33699;DHT22;20032;52.436;13.312;2022-11-20T11:39:14;2.00;99.90
33699;DHT22;20032;52.436;13.312;2022-11-20T11:41:41;2.10;99.90
33699;DHT22;20032;52.436;13.312;2022-11-20T11:44:24;2.20;99.90
33699;DHT22;20032;52.436;13.312;2022-11-20T11:47:24;2.30;99.90
33699;DHT22;20032;52.436;13.312;2022-11-20T11:55:17;2.30;99.90
33699;DHT22;20032;52.436;13.312;2022-11-20T11:57:54;2.20;99.90
33699;DHT22;20032;52.436;13.312;2022-11-20T12:00:21;2.30;99.90
33699;DHT22;20032;52.436;13.312;2022-11-20T12:03:06;2.40;99.90
33699;DHT22;20032;52.436;13.312;2022-11-20T12:05:43;2.30;99.90
33699;DHT22;20032;52.436;13.312;2022-11-20T12:16:13;2.80;99.90
33699;DHT22;20032;52.436;13.312;2022-11-20T12:18:40;2.70;99.90
33699;DHT22;20032;52.436;13.312;2022-11-20T12:21:17;2.70;99.90
33699;DHT22;20032;52.436;13.312;2022-11-20T12:27:00;2.50;99.90
33699;DHT22;20032;52.436;13.312;2022-11-20T12:30:30;2.50;99.90
33699;DHT22;20032;52.436;13.312;2022-11-20T12:35:29;2.60;99.90
33699;DHT22;20032;52.436;13.312;2022-11-20T12:44:58;2.40;99.90
33699;DHT22;20032;52.436;13.312;2022-11-20T12:50:32;2.20;99.90
33699;DHT22;20032;52.436;13.312;2022-11-20T12:53:05;2.20;99.90
33699;DHT22;20032;52.436;13.312;2022-11-20T12:56:00;2.30;99.90
33699;DHT22;20032;52.436;13.312;2022-11-20T12:58:39;2.30;99.90
33699;DHT22;20032;52.436;13.312;2022-11-20T13:01:24;2.20;99.90
33699;DHT22;20032;52.436;13.312;2022-11-20T13:04:34;2.10;99.90
33699;DHT22;20032;52.436;13.312;2022-11-20T13:07:09;2.00;99.90
33699;DHT22;20032;52.436;13.312;2022-11-20T13:09:41;2.00;99.90
33699;DHT22;20032;52.436;13.312;2022-11-20T13:12:24;1.90;99.90
33699;DHT22;20032;52.436;13.312;2022-11-20T13:14:59;1.90;99.90
33699;DHT22;20032;52.436;13.312;2022-11-20T13:20:17;2.00;99.90
33699;DHT22;20032;52.436;13.312;2022-11-20T13:22:48;2.10;99.90
33699;DHT22;20032;52.436;13.312;2022-11-20T13:25:34;2.10;99.90
33699;DHT22;20032;52.436;13.312;2022-11-20T13:28:04;2.10;99.90
33699;DHT22;20032;52.436;13.312;2022-11-20T13:30:31;2.10;99.90
33699;DHT22;20032;52.436;13.312;2022-11-20T13:33:02;2.00;99.90
33699;DHT22;20032;52.436;13.312;2022-11-20T13:35:32;2.00;99.90
33699;DHT22;20032;52.436;13.312;2022-11-20T13:38:07;1.90;99.90
33699;DHT22;20032;52.436;13.312;2022-11-20T13:40:37;1.90;99.90
33699;DHT22;20032;52.436;13.312;2022-11-20T13:46:03;1.80;99.90
33699;DHT22;20032;52.436;13.312;2022-11-20T13:48:32;1.80;99.90
33699;DHT22;20032;52.436;13.312;2022-11-20T13:53:53;1.80;99.90
33699;DHT22;20032;52.436;13.312;2022-11-20T13:56:40;1.90;99.90
33699;DHT22;20032;52.436;13.312;2022-11-20T14:00:27;1.90;99.90
33699;DHT22;20032;52.436;13.312;2022-11-20T14:02:14;1.90;99.90
33699;DHT22;20032;52.436;13.312;2022-11-20T14:04:45;1.90;99.90
33699;DHT22;20032;52.436;13.312;2022-11-20T14:07:11;2.00;99.90
33699;DHT22;20032;52.436;13.312;2022-11-20T14:09:37;2.00;99.90
33699;DHT22;20032;52.436;13.312;2022-11-20T14:12:03;2.10;99.90
33699;DHT22;20032;52.436;13.312;2022-11-20T14:14:30;1.90;99.90
33699;DHT22;20032;52.436;13.312;2022-11-20T14:17:24;1.90;99.90
33699;DHT22;20032;52.436;13.312;2022-11-20T14:19:55;1.90;99.90
33699;DHT22;20032;52.436;13.312;2022-11-20T14:22:25;2.00;99.90
33699;DHT22;20032;52.436;13.312;2022-11-20T14:27:41;1.90;99.90
33699;DHT22;20032;52.436;13.312;2022-11-20T14:30:17;1.80;99.90
33699;DHT22;20032;52.436;13.312;2022-11-20T14:32:44;1.80;99.90
33699;DHT22;20032;52.436;13.312;2022-11-20T14:35:17;1.70;99.90
33699;DHT22;20032;52.436;13.312;2022-11-20T14:37:45;1.80;99.90
33699;DHT22;20032;52.436;13.312;2022-11-20T14:40:30;1.70;99.90
33699;DHT22;20032;52.436;13.312;2022-11-20T14:42:57;1.70;99.90
33699;DHT22;20032;52.436;13.312;2022-11-20T14:45:23;1.80;99.90
33699;DHT22;20032;52.436;13.312;2022-11-20T14:47:51;1.80;99.90
33699;DHT22;20032;52.436;13.312;2022-11-20T14:50:23;1.80;99.90
33699;DHT22;20032;52.436;13.312;2022-11-20T14:52:51;1.90;99.90
33699;DHT22;20032;52.436;13.312;2022-11-20T14:55:35;1.80;99.90
33699;DHT22;20032;52.436;13.312;2022-11-20T15:00:31;1.80;99.90
33699;DHT22;20032;52.436;13.312;2022-11-20T15:02:57;1.80;99.90
33699;DHT22;20032;52.436;13.312;2022-11-20T15:05:43;1.90;99.90
33699;DHT22;20032;52.436;13.312;2022-11-20T15:08:12;1.80;99.90
33699;DHT22;20032;52.436;13.312;2022-11-20T15:10:39;1.80;99.90
33699;DHT22;20032;52.436;13.312;2022-11-20T15:13:13;1.80;99.90
33699;DHT22;20032;52.436;13.312;2022-11-20T15:15:49;1.90;99.90
33699;DHT22;20032;52.436;13.312;2022-11-20T15:18:17;1.80;99.90
33699;DHT22;20032;52.436;13.312;2022-11-20T15:20:43;1.80;99.90
33699;DHT22;20032;52.436;13.312;2022-11-20T15:23:11;1.80;99.90
33699;DHT22;20032;52.436;13.312;2022-11-20T15:25:38;1.80;99.90
33699;DHT22;20032;52.436;13.312;2022-11-20T15:28:12;1.80;99.90
33699;DHT22;20032;52.436;13.312;2022-11-20T15:30:39;1.80;99.90
33699;DHT22;20032;52.436;13.312;2022-11-20T15:33:07;1.80;99.90
33699;DHT22;20032;52.436;13.312;2022-11-20T15:35:32;1.80;99.90
33699;DHT22;20032;52.436;13.312;2022-11-20T15:37:58;1.80;99.90
33699;DHT22;20032;52.436;13.312;2022-11-20T15:40:23;1.80;99.90
33699;DHT22;20032;52.436;13.312;2022-11-20T15:42:49;1.80;99.90
33699;DHT22;20032;52.436;13.312;2022-11-20T15:45:44;1.80;99.90
33699;DHT22;20032;52.436;13.312;2022-11-20T15:48:13;1.80;99.90
33699;DHT22;20032;52.436;13.312;2022-11-20T15:51:02;1.70;99.90
33699;DHT22;20032;52.436;13.312;2022-11-20T15:53:29;1.70;99.90
33699;DHT22;20032;52.436;13.312;2022-11-20T15:55:54;1.60;99.90
33699;DHT22;20032;52.436;13.312;2022-11-20T15:58:20;1.70;99.90
33699;DHT22;20032;52.436;13.312;2022-11-20T16:00:48;1.70;99.90
33699;DHT22;20032;52.436;13.312;2022-11-20T16:03:15;1.80;99.90
33699;DHT22;20032;52.436;13.312;2022-11-20T16:05:40;1.70;99.90
33699;DHT22;20032;52.436;13.312;2022-11-20T16:08:06;1.60;99.90
33699;DHT22;20032;52.436;13.312;2022-11-20T16:10:32;1.60;99.90
33699;DHT22;20032;52.436;13.312;2022-11-20T16:12:57;1.50;99.90
33699;DHT22;20032;52.436;13.312;2022-11-20T16:15:53;1.50;99.90
33699;DHT22;20032;52.436;13.312;2022-11-20T16:18:21;1.40;99.90
33699;DHT22;20032;52.436;13.312;2022-11-20T16:20:48;1.40;99.90
33699;DHT22;20032;52.436;13.312;2022-11-20T16:23:14;1.40;99.90
33699;DHT22;20032;52.436;13.312;2022-11-20T16:25:41;1.30;99.90
33699;DHT22;20032;52.436;13.312;2022-11-20T16:28:07;1.30;99.90
33699;DHT22;20032;52.436;13.312;2022-11-20T16:30:33;1.30;99.90
33699;DHT22;20032;52.436;13.312;2022-11-20T16:33:00;1.30;99.90
33699;DHT22;20032;52.436;13.312;2022-11-20T16:35:27;1.30;99.90
33699;DHT22;20032;52.436;13.312;2022-11-20T16:37:53;1.30;99.90
33699;DHT22;20032;52.436;13.312;2022-11-20T16:40:19;1.30;99.90
33699;DHT22;20032;52.436;13.312;2022-11-20T16:42:44;1.30;99.90